TAF Text Data
IDs:
Format:
Raw Decoded Include METAR

Data at: 0359 UTC 26 May 2022

METAR for:LWSK (Skopje/Alexander the, IL, MK)
Text:LWSK 260330Z 13003KT 9999 FEW070 15/14 Q1019 NOSIG
Temperature: 15.0°C ( 59°F)
Dewpoint: 14.0°C ( 57°F) [RH = 94%]
Pressure (altimeter):30.09 inches Hg (1019.0 mb)
Winds:from the SE (130 degrees) at 3 MPH (3 knots; 1.5 m/s)
Visibility:6 or more sm (10+ km)
Ceiling:at least 12,000 feet AGL
Clouds: few clouds at 7000 feet AGL

TAF for:LWSK (Skopje/Alexander the, IL, MK) issued at 0230 UTC 26 May 2022
Text:TAF LWSK 260230Z 2603/2703 VRB02KT CAVOK
Forecast period:0300 UTC 26 May 2022 to 0300 UTC 27 May 2022
Forecast type:FROM: standard forecast or significant change
Winds:variable direction winds at 2 MPH (2 knots; 1.0 m/s)
Visibility:6 or more sm (10+ km)
Clouds:missing
Weather:NSW (no significant weather)
Text:PROB30
Forecast period:1200 to 1800 UTC 26 May 2022
Forecast type:TEMPORARY: The following changes expected for less than half the time period
Winds:variable direction winds at 17 MPH (15 knots; 7.7 m/s)
Ceiling:at least 12,000 feet AGL
Clouds: few clouds at 3300 feet AGL, scattered clouds at 4000 feet AGL